Hovedside
METAR-TAF:

METAR-TAF

Lufthavner :

Kirkenes, Norge

Kirkenes lufthavn

breddegrad: 69-44N, lengdegrad: 029-54E, høyde over havet: 9 m

Gjeldene værobservasjon

Denne rapporten ble laget for 17 minutter siden, klokken 10:20 UTC
Vind 7 kt fra Øst-sørøst, skiftende mellom Øst-nordøst og Sør
Temperatur 13°C
Luftfuktighet 54%
Trykk 1000 hPa
Sikt 10 km eller mer
Få skyer i en høyde av 3900 ft
Brutte skyer i en høyde av 4800 ft

METAR: ENKR 251020Z 12007KT 060V170 9999 FEW039 BKN048 13/04 Q1000 RMK WIND 731FT 14011KT

Tid: 12:37 (10:37 UTC)


TAF: fraværende

Værobservasjoner og værvarsel for over 4000 flyplasser (METAR- og TAF-rapporter).

Tilgjengelige stasjoner er representert av de røde og gule prikkene på kartet.

Hold musepekeren over prikken for å se navnet på stasjonen.

Klikk så for å se værobservasjoner og -varsler.

For å forandre kartet kan du klikke på den grønne knappen med svart kryss for å zoome inn, på den grønne knappen med strek for å zoome ut, eller på de grønne pilene for å se tilstøtende kart.


METAR-TAF: